createdAt,value
2023-02-26T00:05:51.844Z,4.20
2023-02-26T00:11:17.111Z,3.80
2023-02-26T00:16:42.137Z,2.00
2023-02-26T00:22:07.479Z,2.90
2023-02-26T00:27:31.972Z,2.70
2023-02-26T00:32:56.661Z,2.50
2023-02-26T00:38:20.673Z,3.00
2023-02-26T00:43:45.452Z,2.60
2023-02-26T00:49:28.557Z,2.10
2023-02-26T00:54:53.540Z,2.10
2023-02-26T01:00:18.621Z,2.10
2023-02-26T01:05:42.971Z,3.50
2023-02-26T01:11:07.292Z,3.20
2023-02-26T01:16:38.126Z,2.80
2023-02-26T01:22:34.429Z,3.00
2023-02-26T01:27:59.187Z,2.20
2023-02-26T01:33:39.886Z,2.50
2023-02-26T01:39:25.878Z,2.50
2023-02-26T01:45:21.713Z,1.60
2023-02-26T01:50:45.761Z,1.80
2023-02-26T01:56:20.249Z,4.00
2023-02-26T02:01:44.987Z,2.50
2023-02-26T02:07:10.004Z,4.60
2023-02-26T02:12:51.088Z,3.30
2023-02-26T02:24:06.918Z,3.20
2023-02-26T02:29:52.175Z,3.00
2023-02-26T02:35:27.169Z,2.80
2023-02-26T02:40:59.109Z,2.10
2023-02-26T02:46:29.222Z,2.20
2023-02-26T02:52:03.730Z,2.80
2023-02-26T02:57:37.560Z,1.20
2023-02-26T03:03:13.977Z,1.90
2023-02-26T03:08:42.681Z,3.80
2023-02-26T03:14:10.514Z,1.20
2023-02-26T03:19:44.942Z,1.70
2023-02-26T03:25:22.713Z,1.70
2023-02-26T03:31:04.782Z,1.60
2023-02-26T03:36:54.726Z,1.80
2023-02-26T03:42:44.891Z,3.10
2023-02-26T03:48:14.422Z,1.80
2023-02-26T03:54:03.367Z,2.50
2023-02-26T03:59:30.332Z,4.40
2023-02-26T04:05:21.201Z,2.10
2023-02-26T04:10:53.431Z,1.60
2023-02-26T04:16:19.233Z,3.50
2023-02-26T04:21:44.233Z,2.00
2023-02-26T04:27:08.652Z,2.20
2023-02-26T04:32:33.590Z,1.80
2023-02-26T04:37:58.159Z,2.60
2023-02-26T04:43:22.586Z,4.00
2023-02-26T04:54:22.575Z,3.50
2023-02-26T04:59:46.845Z,5.30
2023-02-26T05:05:10.769Z,7.70
2023-02-26T05:10:35.008Z,3.90
2023-02-26T05:15:58.900Z,1.40
2023-02-26T05:21:26.110Z,2.20
2023-02-26T05:26:51.067Z,3.60
2023-02-26T05:32:15.325Z,1.50
2023-02-26T05:37:40.918Z,2.00
2023-02-26T05:43:05.655Z,3.70
2023-02-26T05:48:30.114Z,1.80
2023-02-26T05:53:55.141Z,1.10
2023-02-26T05:59:19.933Z,2.70
2023-02-26T06:04:44.377Z,3.00
2023-02-26T06:10:09.038Z,1.80
2023-02-26T06:15:33.698Z,1.80
2023-02-26T06:20:57.894Z,1.60
2023-02-26T06:26:23.881Z,1.90
2023-02-26T06:31:48.953Z,2.40
2023-02-26T06:37:13.234Z,3.40
2023-02-26T06:42:37.914Z,3.00
2023-02-26T06:48:02.488Z,2.20
2023-02-26T06:53:26.887Z,2.20
2023-02-26T06:58:52.477Z,4.40
2023-02-26T07:04:19.762Z,5.70
2023-02-26T07:09:46.099Z,3.00
2023-02-26T07:15:11.352Z,2.80
2023-02-26T07:20:35.501Z,5.60
2023-02-26T07:25:59.719Z,7.30
2023-02-26T07:31:25.264Z,3.70
2023-02-26T07:36:50.821Z,3.30
2023-02-26T07:42:15.480Z,6.10
2023-02-26T07:47:39.941Z,3.00
2023-02-26T07:53:03.873Z,5.10
2023-02-26T07:58:28.765Z,4.60
2023-02-26T08:03:53.318Z,6.10
2023-02-26T08:09:18.820Z,8.50
2023-02-26T08:14:43.140Z,13.00
2023-02-26T08:20:08.958Z,2.00
2023-02-26T08:25:33.886Z,4.00
2023-02-26T08:30:58.484Z,3.80
2023-02-26T08:36:24.001Z,3.50
2023-02-26T08:41:48.672Z,1.80
2023-02-26T08:47:15.154Z,2.10
2023-02-26T08:52:41.255Z,3.00
2023-02-26T08:58:06.176Z,2.70
2023-02-26T09:03:34.218Z,3.60
2023-02-26T09:08:58.897Z,2.90
2023-02-26T09:14:23.944Z,1.70
2023-02-26T09:19:48.080Z,3.00
2023-02-26T09:25:12.795Z,4.90
2023-02-26T09:30:36.944Z,8.20
2023-02-26T09:36:01.120Z,2.40
2023-02-26T09:41:32.788Z,2.90
2023-02-26T09:47:19.088Z,4.70
2023-02-26T09:52:53.999Z,6.40
2023-02-26T09:58:38.140Z,6.20
2023-02-26T10:04:14.595Z,3.70
2023-02-26T10:10:11.296Z,7.30
2023-02-26T10:15:43.614Z,3.40
2023-02-26T10:21:15.681Z,4.20
2023-02-26T10:26:50.281Z,3.20
2023-02-26T10:32:18.037Z,6.60
2023-02-26T10:37:52.650Z,5.20
2023-02-26T10:43:43.256Z,5.30
2023-02-26T10:49:33.120Z,6.50
2023-02-26T10:55:07.611Z,2.10
2023-02-26T11:00:43.357Z,4.30
2023-02-26T11:06:08.763Z,6.80
2023-02-26T11:11:43.990Z,10.60
2023-02-26T11:17:17.171Z,4.70
2023-02-26T11:22:57.933Z,5.50
2023-02-26T11:28:32.625Z,6.10
2023-02-26T11:34:05.728Z,5.70
2023-02-26T11:39:34.957Z,3.30
2023-02-26T11:44:59.517Z,9.60
2023-02-26T11:50:26.542Z,6.90
2023-02-26T11:56:00.603Z,9.00
2023-02-26T12:01:30.090Z,30.90
2023-02-26T12:06:55.743Z,8.70
2023-02-26T12:12:28.466Z,5.00
2023-02-26T12:18:18.028Z,5.00
2023-02-26T12:24:10.878Z,3.30
2023-02-26T12:30:01.716Z,6.10
2023-02-26T12:35:35.477Z,5.50
2023-02-26T12:40:59.849Z,5.40
2023-02-26T12:46:41.362Z,8.40
2023-02-26T12:52:26.989Z,3.70
2023-02-26T12:58:05.514Z,3.90
2023-02-26T13:03:55.358Z,6.20
2023-02-26T13:09:34.950Z,3.10
2023-02-26T13:15:14.616Z,3.30
2023-02-26T13:20:45.923Z,4.90
2023-02-26T13:26:16.465Z,8.40
2023-02-26T13:31:49.936Z,16.70
2023-02-26T13:43:31.557Z,4.40
2023-02-26T13:49:24.386Z,4.80
2023-02-26T14:00:29.008Z,3.20
2023-02-26T14:06:07.767Z,5.40
2023-02-26T14:11:46.894Z,6.60
2023-02-26T14:17:11.713Z,6.50
2023-02-26T14:22:43.581Z,8.60
2023-02-26T14:28:26.655Z,7.90
2023-02-26T14:34:10.334Z,6.80
2023-02-26T14:39:46.894Z,7.30
2023-02-26T14:45:14.645Z,4.70
2023-02-26T14:50:45.146Z,24.10
2023-02-26T14:56:32.052Z,9.90
2023-02-26T15:02:27.280Z,8.70
2023-02-26T15:07:59.068Z,12.80
2023-02-26T15:14:01.244Z,6.30
2023-02-26T15:19:33.647Z,2.90
2023-02-26T15:24:59.483Z,7.50
2023-02-26T15:30:25.021Z,8.80
2023-02-26T15:35:52.242Z,7.10
2023-02-26T15:41:18.562Z,3.20
2023-02-26T15:46:49.515Z,4.20
2023-02-26T15:52:18.237Z,4.90
2023-02-26T15:57:46.395Z,5.10
2023-02-26T16:03:11.038Z,9.10
2023-02-26T16:08:35.718Z,9.20
2023-02-26T16:14:01.320Z,5.80
2023-02-26T16:19:41.935Z,7.10
2023-02-26T16:25:08.792Z,4.80
2023-02-26T16:30:38.126Z,5.90
2023-02-26T16:36:19.102Z,5.40
2023-02-26T16:41:47.447Z,4.50
2023-02-26T16:47:11.517Z,5.70
2023-02-26T16:52:36.088Z,6.90
2023-02-26T16:58:06.262Z,6.90
2023-02-26T17:03:31.652Z,5.20
2023-02-26T17:08:59.208Z,6.80
2023-02-26T17:14:26.021Z,4.40
2023-02-26T17:19:51.112Z,5.70
2023-02-26T17:25:21.187Z,4.00
2023-02-26T17:30:46.712Z,4.30
2023-02-26T17:36:16.450Z,12.40
2023-02-26T17:41:43.899Z,13.70
2023-02-26T17:47:15.427Z,7.90
2023-02-26T17:52:39.520Z,7.00
2023-02-26T17:58:06.829Z,5.90
2023-02-26T18:03:31.401Z,7.50
2023-02-26T18:08:56.080Z,9.60
2023-02-26T18:14:19.860Z,8.40
2023-02-26T18:19:44.003Z,8.50
2023-02-26T18:25:09.829Z,7.90
2023-02-26T18:30:36.813Z,7.90
2023-02-26T18:36:01.534Z,7.70
2023-02-26T18:41:27.466Z,11.20
2023-02-26T18:46:52.590Z,6.80
2023-02-26T18:52:17.037Z,8.30
2023-02-26T18:57:42.703Z,7.00
2023-02-26T19:03:09.599Z,5.70
2023-02-26T19:08:35.093Z,6.40
2023-02-26T19:14:01.711Z,5.40
2023-02-26T19:19:25.953Z,7.10
2023-02-26T19:24:50.255Z,8.00
2023-02-26T19:30:14.254Z,5.90
2023-02-26T19:35:39.612Z,6.90
2023-02-26T19:41:04.722Z,8.10
2023-02-26T19:46:30.360Z,8.60
2023-02-26T19:51:55.372Z,7.30
2023-02-26T19:57:20.552Z,10.10
2023-02-26T20:02:46.362Z,9.00
2023-02-26T20:08:11.519Z,10.60
2023-02-26T20:13:37.578Z,9.40
2023-02-26T20:19:02.361Z,9.30
2023-02-26T20:24:26.813Z,13.00
2023-02-26T20:29:51.996Z,10.10
2023-02-26T20:35:16.476Z,10.80
2023-02-26T20:40:40.961Z,14.00
2023-02-26T20:46:06.269Z,10.40
2023-02-26T20:51:30.813Z,15.90
2023-02-26T20:56:55.178Z,10.10
2023-02-26T21:02:21.089Z,15.60
2023-02-26T21:07:45.242Z,22.80
2023-02-26T21:13:12.282Z,26.40
2023-02-26T21:18:36.898Z,20.10
2023-02-26T21:24:01.891Z,12.40
2023-02-26T21:29:27.069Z,14.70
2023-02-26T21:34:51.048Z,11.60
2023-02-26T21:40:15.972Z,11.80
2023-02-26T21:45:41.960Z,12.00
2023-02-26T21:51:07.061Z,13.90
2023-02-26T21:56:31.690Z,9.80
2023-02-26T22:01:56.657Z,9.20
2023-02-26T22:07:20.982Z,6.40
2023-02-26T22:12:45.203Z,6.50
2023-02-26T22:18:09.527Z,7.80
2023-02-26T22:23:34.473Z,14.70
2023-02-26T22:29:01.021Z,20.70
2023-02-26T22:34:25.475Z,18.60
2023-02-26T22:39:49.962Z,22.20
2023-02-26T22:45:17.431Z,16.20
2023-02-26T22:50:42.801Z,13.40
2023-02-26T22:56:07.506Z,13.80
2023-02-26T23:01:31.855Z,14.80
2023-02-26T23:06:56.471Z,12.60
2023-02-26T23:12:20.614Z,11.10
2023-02-26T23:17:45.060Z,10.60
2023-02-26T23:23:09.637Z,9.70
2023-02-26T23:28:35.117Z,7.90
2023-02-26T23:34:00.595Z,10.50
2023-02-26T23:39:26.196Z,10.00
2023-02-26T23:44:50.345Z,11.50
2023-02-26T23:50:14.869Z,14.60
2023-02-26T23:55:39.178Z,10.50
